createdAt,value
2023-02-08T00:00:25.060Z,101327.44
2023-02-08T00:02:53.068Z,101323.41
2023-02-08T00:05:19.825Z,101332.56
2023-02-08T00:07:46.543Z,101327.59
2023-02-08T00:10:13.133Z,101323.28
2023-02-08T00:12:39.924Z,101326.09
2023-02-08T00:15:07.005Z,101324.81
2023-02-08T00:17:33.634Z,101321.81
2023-02-08T00:20:01.721Z,101330.13
2023-02-08T00:22:28.301Z,101328.63
2023-02-08T00:24:54.955Z,101328.97
2023-02-08T00:27:21.626Z,101316.91
2023-02-08T00:29:48.154Z,101324.19
2023-02-08T00:32:14.760Z,101314.72
2023-02-08T00:34:41.350Z,101320.34
2023-02-08T00:37:09.297Z,101312.19
2023-02-08T00:39:35.821Z,101310.72
2023-02-08T00:42:02.610Z,101315.38
2023-02-08T00:44:29.207Z,101313.41
2023-02-08T00:46:55.802Z,101315.56
2023-02-08T00:49:22.378Z,101311.59
2023-02-08T00:51:48.888Z,101311.81
2023-02-08T00:54:17.750Z,101311.31
2023-02-08T00:56:44.597Z,101313.28
2023-02-08T00:59:11.686Z,101315.28
2023-02-08T01:01:38.771Z,101315.63
2023-02-08T01:04:06.292Z,101320.78
2023-02-08T01:06:33.203Z,101309.13
2023-02-08T01:08:59.756Z,101305.69
2023-02-08T01:11:27.799Z,101305.34
2023-02-08T01:13:56.338Z,101297.72
2023-02-08T01:16:26.153Z,101301.69
2023-02-08T01:18:54.791Z,101295.72
2023-02-08T01:21:23.123Z,101297.72
2023-02-08T01:23:50.493Z,101293.75
2023-02-08T01:26:18.945Z,101298.41
2023-02-08T01:28:47.678Z,101299.56
2023-02-08T01:31:16.792Z,101289.16
2023-02-08T01:33:43.634Z,101296.44
2023-02-08T01:36:11.110Z,101284.66
2023-02-08T01:38:38.059Z,101282.50
2023-02-08T01:41:06.056Z,101284.16
2023-02-08T01:43:35.304Z,101286.97
2023-02-08T01:46:03.278Z,101284.50
2023-02-08T01:48:34.575Z,101281.84
2023-02-08T01:51:05.505Z,101275.72
2023-02-08T01:53:34.678Z,101275.88
2023-02-08T01:56:06.480Z,101277.53
2023-02-08T01:58:36.550Z,101282.66
2023-02-08T02:01:05.449Z,101278.53
2023-02-08T02:03:32.221Z,101281.53
2023-02-08T02:06:07.548Z,101273.75
2023-02-08T02:08:34.206Z,101278.38
2023-02-08T02:11:00.802Z,101269.13
2023-02-08T02:13:28.123Z,101275.25
2023-02-08T02:15:55.220Z,101267.47
2023-02-08T02:18:26.957Z,101267.63
2023-02-08T02:21:11.550Z,101265.28
2023-02-08T02:24:03.302Z,101266.94
2023-02-08T02:26:58.489Z,101266.13
2023-02-08T02:29:56.782Z,101261.81
2023-02-08T02:32:46.611Z,101267.63
2023-02-08T02:35:20.198Z,101261.66
2023-02-08T02:37:55.133Z,101268.63
2023-02-08T02:40:28.548Z,101267.94
2023-02-08T02:43:05.232Z,101267.28
2023-02-08T02:45:37.947Z,101268.47
2023-02-08T02:48:12.073Z,101274.75
2023-02-08T02:50:43.386Z,101272.25
2023-02-08T02:53:16.944Z,101272.41
2023-02-08T02:55:46.969Z,101273.09
2023-02-08T02:58:16.571Z,101280.38
2023-02-08T03:00:43.215Z,101281.19
2023-02-08T03:03:19.694Z,101281.53
2023-02-08T03:05:46.241Z,101276.56
2023-02-08T03:08:47.408Z,101284.84
2023-02-08T03:11:20.314Z,101282.50
2023-02-08T03:14:02.153Z,101285.50
2023-02-08T03:16:37.627Z,101285.50
2023-02-08T03:19:17.354Z,101280.53
2023-02-08T03:21:50.927Z,101272.44
2023-02-08T03:24:27.901Z,101286.81
2023-02-08T03:27:01.582Z,101291.97
2023-02-08T03:29:42.479Z,101288.47
2023-02-08T03:32:13.326Z,101283.50
2023-02-08T03:34:47.620Z,101288.16
2023-02-08T03:37:18.800Z,101290.47
2023-02-08T03:39:48.679Z,101278.19
2023-02-08T03:42:20.853Z,101283.34
2023-02-08T03:44:53.147Z,101284.69
2023-02-08T03:47:23.309Z,101279.88
2023-02-08T03:49:53.414Z,101283.69
2023-02-08T03:52:23.196Z,101290.31
2023-02-08T03:54:52.997Z,101286.50
2023-02-08T03:57:23.656Z,101288.78
2023-02-08T03:59:56.708Z,101285.00
2023-02-08T04:02:28.140Z,101290.44
2023-02-08T04:04:57.652Z,101287.28
2023-02-08T04:07:24.351Z,101281.50
2023-02-08T04:09:50.941Z,101272.41
2023-02-08T04:12:17.627Z,101280.53
2023-02-08T04:14:44.376Z,101281.00
2023-02-08T04:17:10.973Z,101287.63
2023-02-08T04:19:37.904Z,101278.03
2023-02-08T04:22:06.068Z,101279.03
2023-02-08T04:24:32.705Z,101278.03
2023-02-08T04:26:59.322Z,101280.69
2023-02-08T04:29:26.115Z,101272.38
2023-02-08T04:31:52.747Z,101274.38
2023-02-08T04:34:19.557Z,101276.69
2023-02-08T04:36:46.158Z,101276.34
2023-02-08T04:39:14.108Z,101279.16
2023-02-08T04:41:40.733Z,101276.81
2023-02-08T04:44:07.502Z,101274.31
2023-02-08T04:46:34.130Z,101267.72
2023-02-08T04:49:00.880Z,101276.50
2023-02-08T04:51:27.701Z,101268.88
2023-02-08T04:53:54.309Z,101260.59
2023-02-08T04:56:22.410Z,101274.66
2023-02-08T04:58:49.173Z,101272.84
2023-02-08T05:01:15.982Z,101270.06
2023-02-08T05:03:42.586Z,101272.03
2023-02-08T05:06:09.132Z,101264.75
2023-02-08T05:08:35.814Z,101277.31
2023-02-08T05:11:02.666Z,101280.28
2023-02-08T05:13:30.816Z,101275.69
2023-02-08T05:15:57.406Z,101266.22
2023-02-08T05:18:24.076Z,101272.69
2023-02-08T05:20:57.872Z,101276.19
2023-02-08T05:23:24.652Z,101282.28
2023-02-08T05:25:51.258Z,101277.81
2023-02-08T05:28:18.418Z,101277.81
2023-02-08T05:30:46.742Z,101278.97
2023-02-08T05:33:13.567Z,101285.09
2023-02-08T05:35:40.294Z,101280.28
2023-02-08T05:38:07.203Z,101281.78
2023-02-08T05:40:34.456Z,101275.97
2023-02-08T05:43:01.004Z,101273.47
2023-02-08T05:45:27.774Z,101276.63
2023-02-08T05:47:55.702Z,101275.63
2023-02-08T05:50:22.394Z,101283.41
2023-02-08T05:52:49.057Z,101281.06
2023-02-08T05:55:15.844Z,101287.19
2023-02-08T05:57:42.382Z,101289.31
2023-02-08T06:00:10.327Z,101297.91
2023-02-08T06:02:36.876Z,101295.72
2023-02-08T06:05:05.084Z,101301.34
2023-02-08T06:07:31.677Z,101300.00
2023-02-08T06:09:58.192Z,101294.03
2023-02-08T06:12:24.783Z,101298.66
2023-02-08T06:14:51.449Z,101304.94
2023-02-08T06:17:18.172Z,101302.28
2023-02-08T06:19:44.683Z,101310.38
2023-02-08T06:22:12.744Z,101307.75
2023-02-08T06:24:39.484Z,101303.75
2023-02-08T06:27:06.232Z,101309.50
2023-02-08T06:29:32.844Z,101305.34
2023-02-08T06:31:59.598Z,101306.34
2023-02-08T06:34:26.412Z,101302.38
2023-02-08T06:36:52.969Z,101302.22
2023-02-08T06:39:20.860Z,101297.91
2023-02-08T06:41:47.427Z,101305.84
2023-02-08T06:44:13.994Z,101306.84
2023-02-08T06:46:40.727Z,101302.53
2023-02-08T06:49:07.549Z,101305.16
2023-02-08T06:51:34.278Z,101307.97
2023-02-08T06:54:00.854Z,101312.81
2023-02-08T06:56:28.812Z,101315.78
2023-02-08T06:58:56.440Z,101317.75
2023-02-08T07:01:23.059Z,101319.41
2023-02-08T07:03:49.622Z,101317.28
2023-02-08T07:06:18.118Z,101325.28
2023-02-08T07:08:45.169Z,101312.53
2023-02-08T07:11:14.255Z,101312.25
2023-02-08T07:13:42.304Z,101319.75
2023-02-08T07:16:10.138Z,101315.44
2023-02-08T07:18:37.214Z,101321.06
2023-02-08T07:21:04.443Z,101313.66
2023-02-08T07:23:31.254Z,101318.59
2023-02-08T07:25:58.892Z,101320.25
2023-02-08T07:28:25.870Z,101315.50
2023-02-08T07:30:54.100Z,101315.81
2023-02-08T07:33:22.745Z,101307.41
2023-02-08T07:35:49.573Z,101311.44
2023-02-08T07:38:16.383Z,101313.28
2023-02-08T07:40:43.276Z,101299.88
2023-02-08T07:43:09.910Z,101303.53
2023-02-08T07:45:38.072Z,101293.47
2023-02-08T07:48:06.286Z,101295.91
2023-02-08T07:50:33.006Z,101301.06
2023-02-08T07:52:59.552Z,101296.78
2023-02-08T07:55:26.251Z,101292.47
2023-02-08T07:57:56.427Z,101298.75
2023-02-08T08:00:23.287Z,101285.84
2023-02-08T08:02:49.911Z,101291.13
2023-02-08T08:05:17.973Z,101289.28
2023-02-08T08:07:44.564Z,101278.34
2023-02-08T08:10:11.225Z,101272.34
2023-02-08T08:12:37.824Z,101267.81
2023-02-08T08:15:05.278Z,101269.78
2023-02-08T08:17:31.874Z,101272.91
2023-02-08T08:19:58.444Z,101272.19
2023-02-08T08:22:26.460Z,101270.16
2023-02-08T08:24:53.054Z,101264.66
2023-02-08T08:27:19.759Z,101272.25
2023-02-08T08:29:46.308Z,101273.50
2023-02-08T08:32:12.998Z,101262.84
2023-02-08T08:34:39.693Z,101256.81
2023-02-08T08:37:06.293Z,101266.22
2023-02-08T08:39:34.377Z,101265.81
2023-02-08T08:42:01.846Z,101269.69
2023-02-08T08:44:28.559Z,101261.59
2023-02-08T08:46:55.247Z,101267.78
2023-02-08T08:49:22.106Z,101266.53
2023-02-08T08:51:48.747Z,101262.22
2023-02-08T08:54:15.260Z,101257.19
2023-02-08T08:56:43.354Z,101252.44
2023-02-08T08:59:10.100Z,101254.81
2023-02-08T09:01:36.909Z,101261.69
2023-02-08T09:04:04.021Z,101257.38
2023-02-08T09:06:30.666Z,101261.59
2023-02-08T09:08:57.270Z,101266.28
2023-02-08T09:11:23.873Z,101263.88
2023-02-08T09:13:51.745Z,101270.09
2023-02-08T09:16:19.583Z,101275.13
2023-02-08T09:18:46.418Z,101276.69
2023-02-08T09:21:14.554Z,101273.78
2023-02-08T09:23:41.585Z,101275.13
2023-02-08T09:26:10.589Z,101274.25
2023-02-08T09:28:38.265Z,101279.06
2023-02-08T09:31:09.881Z,101280.47
2023-02-08T09:33:36.877Z,101275.63
2023-02-08T09:36:04.707Z,101276.78
2023-02-08T09:38:32.820Z,101263.19
2023-02-08T09:41:13.403Z,101267.94
2023-02-08T09:43:48.499Z,101262.72
2023-02-08T09:46:20.034Z,101271.22
2023-02-08T09:48:49.163Z,101270.28
2023-02-08T09:51:25.097Z,101266.00
2023-02-08T09:53:54.589Z,101267.72
2023-02-08T09:56:28.282Z,101270.41
2023-02-08T09:58:57.037Z,101261.75
2023-02-08T10:01:27.660Z,101262.25
2023-02-08T10:04:00.510Z,101258.56
2023-02-08T10:06:27.590Z,101259.63
2023-02-08T10:08:54.330Z,101262.50
2023-02-08T10:11:40.585Z,101256.53
2023-02-08T10:14:30.339Z,101258.38
2023-02-08T10:17:10.011Z,101250.53
2023-02-08T10:19:52.182Z,101257.09
2023-02-08T10:22:30.647Z,101252.16
2023-02-08T10:25:27.141Z,101240.22
2023-02-08T10:28:11.155Z,101234.81
2023-02-08T10:30:44.939Z,101235.19
2023-02-08T10:33:18.411Z,101239.91
2023-02-08T10:35:48.621Z,101238.81
2023-02-08T10:38:25.395Z,101236.03
2023-02-08T10:40:55.148Z,101232.16
2023-02-08T10:46:05.342Z,101222.44
2023-02-08T10:48:44.872Z,101218.69
2023-02-08T10:51:15.236Z,101223.50
2023-02-08T10:53:41.821Z,101212.97
2023-02-08T10:56:27.923Z,101213.34
2023-02-08T10:58:54.987Z,101214.91
2023-02-08T11:01:22.215Z,101218.59
2023-02-08T11:04:05.686Z,101212.19
2023-02-08T11:06:32.785Z,101201.38
2023-02-08T11:09:37.627Z,101199.72
2023-02-08T11:12:04.533Z,101201.41
2023-02-08T11:14:46.697Z,101194.19
2023-02-08T11:17:28.623Z,101184.63
2023-02-08T11:19:58.378Z,101178.56
2023-02-08T11:22:27.653Z,101182.44
2023-02-08T11:24:57.127Z,101176.03
2023-02-08T11:27:32.989Z,101168.28
2023-02-08T11:30:32.333Z,101165.97
2023-02-08T11:33:20.697Z,101168.34
2023-02-08T11:35:56.298Z,101161.81
2023-02-08T11:38:23.336Z,101158.38
2023-02-08T11:40:50.371Z,101157.44
2023-02-08T11:43:22.574Z,101151.22
2023-02-08T11:45:50.029Z,101163.41
2023-02-08T11:48:23.523Z,101142.72
2023-02-08T11:50:57.900Z,101143.78
2023-02-08T11:53:29.981Z,101150.69
2023-02-08T11:56:15.526Z,101148.44
2023-02-08T11:58:42.373Z,101147.50
2023-02-08T12:01:19.798Z,101133.13
2023-02-08T12:03:48.750Z,101140.31
2023-02-08T12:06:36.679Z,101135.69
2023-02-08T12:09:14.628Z,101139.50
2023-02-08T12:11:43.393Z,101135.88
2023-02-08T12:14:26.353Z,101132.91
2023-02-08T12:17:08.896Z,101130.00
2023-02-08T12:19:58.530Z,101132.28
2023-02-08T12:22:27.853Z,101129.28
2023-02-08T12:25:06.854Z,101120.88
2023-02-08T12:27:42.565Z,101115.63
2023-02-08T12:30:21.483Z,101119.16
2023-02-08T12:33:37.935Z,101108.59
2023-02-08T12:36:15.398Z,101102.88
2023-02-08T12:39:20.091Z,101107.03
2023-02-08T12:42:02.706Z,101100.00
2023-02-08T12:44:40.367Z,101094.59
2023-02-08T12:47:24.207Z,101089.19
2023-02-08T12:50:02.659Z,101090.44
2023-02-08T12:52:36.473Z,101089.22
2023-02-08T12:55:13.559Z,101082.81
2023-02-08T12:57:44.675Z,101085.44
2023-02-08T13:00:18.723Z,101082.97
2023-02-08T13:02:51.276Z,101073.97
2023-02-08T13:05:21.850Z,101074.22
2023-02-08T13:07:55.440Z,101072.09
2023-02-08T13:10:26.817Z,101060.63
2023-02-08T13:12:56.989Z,101063.47
2023-02-08T13:15:31.275Z,101059.97
2023-02-08T13:18:00.055Z,101057.81
2023-02-08T13:20:38.510Z,101059.66
2023-02-08T13:23:15.198Z,101052.94
2023-02-08T13:25:43.239Z,101043.84
2023-02-08T13:28:19.100Z,101048.81
2023-02-08T13:30:52.446Z,101040.50
2023-02-08T13:33:29.646Z,101039.09
2023-02-08T13:35:57.808Z,101040.66
2023-02-08T13:38:28.503Z,101038.72
2023-02-08T13:41:07.915Z,101045.84
2023-02-08T13:43:43.139Z,101042.97
2023-02-08T13:46:11.765Z,101036.00
2023-02-08T13:48:44.909Z,101038.41
2023-02-08T13:52:00.433Z,101035.66
2023-02-08T13:54:27.141Z,101027.78
2023-02-08T13:56:53.809Z,101031.09
2023-02-08T13:59:34.301Z,101032.22
2023-02-08T14:02:23.938Z,101029.06
2023-02-08T14:04:51.902Z,101026.88
2023-02-08T14:07:39.171Z,101023.38
2023-02-08T14:10:21.040Z,101018.41
2023-02-08T14:12:56.885Z,101019.13
2023-02-08T14:15:31.056Z,101020.88
2023-02-08T14:17:59.257Z,101013.63
2023-02-08T14:20:30.701Z,101009.34
2023-02-08T14:23:00.456Z,101013.13
2023-02-08T14:25:31.044Z,101009.00
2023-02-08T14:27:59.659Z,101009.81
2023-02-08T14:30:30.736Z,101009.25
2023-02-08T14:33:12.811Z,101004.06
2023-02-08T14:35:42.734Z,101004.59
2023-02-08T14:38:32.453Z,101012.53
2023-02-08T14:41:00.257Z,101008.09
2023-02-08T14:43:33.225Z,101007.06
2023-02-08T14:46:33.178Z,100997.06
2023-02-08T14:49:01.818Z,100996.75
2023-02-08T14:51:33.210Z,100996.53
2023-02-08T14:54:14.518Z,100997.19
2023-02-08T14:56:50.155Z,100992.81
2023-02-08T14:59:20.623Z,101004.81
2023-02-08T15:01:50.383Z,100987.97
2023-02-08T15:04:18.383Z,100995.81
2023-02-08T15:07:18.097Z,100987.34
2023-02-08T15:09:45.703Z,100987.34
2023-02-08T15:12:18.159Z,100981.47
2023-02-08T15:14:45.285Z,100974.13
2023-02-08T15:17:21.698Z,100984.06
2023-02-08T15:19:51.628Z,100979.28
2023-02-08T15:22:32.771Z,100967.59
2023-02-08T15:25:01.691Z,100967.31
2023-02-08T15:27:30.366Z,100978.50
2023-02-08T15:29:57.198Z,100972.97
2023-02-08T15:32:27.251Z,100975.63
2023-02-08T15:34:57.258Z,100969.34
2023-02-08T15:37:24.664Z,100965.47
2023-02-08T15:39:54.643Z,100958.19
2023-02-08T15:42:23.218Z,100961.94
2023-02-08T15:44:51.311Z,100962.31
2023-02-08T15:47:22.508Z,100957.69
2023-02-08T15:49:50.556Z,100967.81
2023-02-08T15:52:20.910Z,100972.03
2023-02-08T15:54:47.798Z,100965.34
2023-02-08T15:57:34.059Z,100959.88
2023-02-08T16:00:02.490Z,100965.47
2023-02-08T16:02:31.494Z,100959.94
2023-02-08T16:04:59.668Z,100960.09
2023-02-08T16:07:34.196Z,100944.25
2023-02-08T16:10:01.476Z,100945.34
2023-02-08T16:12:29.115Z,100950.72
2023-02-08T16:14:55.984Z,100947.53
2023-02-08T16:17:35.672Z,100945.34
2023-02-08T16:20:02.330Z,100946.38
2023-02-08T16:22:32.583Z,100954.78
2023-02-08T16:25:24.799Z,100946.03
2023-02-08T16:27:51.803Z,100936.81
2023-02-08T16:30:20.332Z,100942.31
2023-02-08T16:32:47.430Z,100945.59
2023-02-08T16:35:19.717Z,100945.31
2023-02-08T16:37:54.273Z,100943.97
2023-02-08T16:40:53.245Z,100932.16
2023-02-08T16:43:25.257Z,100945.41
2023-02-08T16:46:19.144Z,100948.59
2023-02-08T16:48:49.464Z,100943.91
2023-02-08T16:51:18.297Z,100943.94
2023-02-08T16:53:46.297Z,100940.28
2023-02-08T16:56:12.972Z,100946.66
2023-02-08T16:58:39.604Z,100936.66
2023-02-08T17:01:06.635Z,100939.47
2023-02-08T17:03:33.455Z,100930.28
2023-02-08T17:06:01.096Z,100932.06
2023-02-08T17:08:27.866Z,100935.88
2023-02-08T17:10:55.865Z,100938.25
2023-02-08T17:13:22.394Z,100931.34
2023-02-08T17:15:51.102Z,100925.91
2023-02-08T17:18:18.086Z,100932.09
2023-02-08T17:20:45.059Z,100926.19
2023-02-08T17:23:12.726Z,100919.84
2023-02-08T17:25:39.793Z,100929.16
2023-02-08T17:28:11.854Z,100932.47
2023-02-08T17:30:40.871Z,100940.13
2023-02-08T17:33:08.539Z,100932.72
2023-02-08T17:35:35.523Z,100937.91
2023-02-08T17:38:02.152Z,100931.56
2023-02-08T17:40:32.721Z,100928.28
2023-02-08T17:43:00.268Z,100927.88
2023-02-08T17:45:28.881Z,100936.09
2023-02-08T17:47:56.472Z,100927.47
2023-02-08T17:50:23.175Z,100930.34
2023-02-08T17:52:49.746Z,100916.38
2023-02-08T17:55:17.795Z,100916.78
2023-02-08T17:57:45.343Z,100923.53
2023-02-08T18:00:15.158Z,100931.34
2023-02-08T18:02:48.155Z,100930.72
2023-02-08T18:05:15.667Z,100931.34
2023-02-08T18:07:42.242Z,100919.22
2023-02-08T18:10:10.989Z,100922.28
2023-02-08T18:12:37.769Z,100921.91
2023-02-08T18:15:06.215Z,100917.34
2023-02-08T18:17:33.236Z,100919.00
2023-02-08T18:20:01.306Z,100916.97
2023-02-08T18:22:28.302Z,100916.31
2023-02-08T18:24:54.887Z,100904.41
2023-02-08T18:27:21.465Z,100902.34
2023-02-08T18:29:48.419Z,100902.75
2023-02-08T18:32:15.080Z,100909.72
2023-02-08T18:34:41.839Z,100908.03
2023-02-08T18:37:09.844Z,100899.63
2023-02-08T18:39:36.740Z,100903.88
2023-02-08T18:42:05.531Z,100896.50
2023-02-08T18:44:32.517Z,100895.88
2023-02-08T18:46:59.127Z,100896.25
2023-02-08T18:49:25.735Z,100886.81
2023-02-08T18:51:52.309Z,100889.47
2023-02-08T18:54:20.211Z,100879.63
2023-02-08T18:56:50.664Z,100880.69
2023-02-08T18:59:17.260Z,100872.25
2023-02-08T19:01:43.828Z,100878.84
2023-02-08T19:04:10.382Z,100874.72
2023-02-08T19:06:37.581Z,100870.41
2023-02-08T19:09:06.099Z,100878.22
2023-02-08T19:11:36.378Z,100878.59
2023-02-08T19:14:06.684Z,100873.47
2023-02-08T19:16:35.453Z,100875.50
2023-02-08T19:19:02.828Z,100871.78
2023-02-08T19:21:30.921Z,100875.25
2023-02-08T19:23:58.115Z,100869.06
2023-02-08T19:26:27.437Z,100871.47
2023-02-08T19:28:57.219Z,100869.81
2023-02-08T19:31:25.360Z,100860.56
2023-02-08T19:33:53.910Z,100864.00
2023-02-08T19:36:23.867Z,100860.72
2023-02-08T19:38:51.004Z,100859.66
2023-02-08T19:41:19.601Z,100855.78
2023-02-08T19:43:46.985Z,100863.34
2023-02-08T19:46:19.556Z,100866.19
2023-02-08T19:48:46.691Z,100865.56
2023-02-08T19:51:13.230Z,100868.84
2023-02-08T19:53:39.970Z,100870.03
2023-02-08T19:56:08.962Z,100864.69
2023-02-08T19:58:36.750Z,100857.25
2023-02-08T20:01:06.210Z,100853.13
2023-02-08T20:03:34.440Z,100862.97
2023-02-08T20:06:01.068Z,100852.09
2023-02-08T20:08:28.471Z,100850.81
2023-02-08T20:10:55.630Z,100843.44
2023-02-08T20:13:22.565Z,100849.31
2023-02-08T20:15:49.608Z,100850.72
2023-02-08T20:18:17.143Z,100841.28
2023-02-08T20:20:45.231Z,100836.94
2023-02-08T20:23:22.313Z,100842.81
2023-02-08T20:25:49.591Z,100841.75
2023-02-08T20:28:16.332Z,100833.91
2023-02-08T20:30:42.983Z,100831.22
2023-02-08T20:33:09.741Z,100820.50
2023-02-08T20:35:36.565Z,100832.34
2023-02-08T20:38:04.665Z,100830.25
2023-02-08T20:40:31.253Z,100828.19
2023-02-08T20:42:57.817Z,100820.75
2023-02-08T20:45:24.429Z,100823.78
2023-02-08T20:47:51.161Z,100830.34
2023-02-08T20:50:20.249Z,100820.72
2023-02-08T20:52:47.545Z,100829.06
2023-02-08T20:55:15.457Z,100836.84
2023-02-08T20:57:42.035Z,100835.47
2023-02-08T21:00:10.175Z,100845.06
2023-02-08T21:02:36.828Z,100846.47
2023-02-08T21:05:03.616Z,100842.91
2023-02-08T21:07:30.312Z,100831.66
2023-02-08T21:09:56.959Z,100831.00
2023-02-08T21:12:24.889Z,100829.34
2023-02-08T21:14:51.436Z,100829.34
2023-02-08T21:17:17.990Z,100829.75
2023-02-08T21:19:44.530Z,100835.06
2023-02-08T21:22:11.286Z,100828.09
2023-02-08T21:24:37.871Z,100831.13
2023-02-08T21:27:04.443Z,100825.34
2023-02-08T21:29:32.547Z,100821.88
2023-02-08T21:31:59.268Z,100824.16
2023-02-08T21:34:26.146Z,100816.19
2023-02-08T21:36:52.682Z,100815.44
2023-02-08T21:39:19.459Z,100817.84
2023-02-08T21:41:46.026Z,100811.47
2023-02-08T21:44:12.757Z,100813.84
2023-02-08T21:46:41.117Z,100810.13
2023-02-08T21:49:07.712Z,100807.72
2023-02-08T21:51:34.496Z,100808.09
2023-02-08T21:54:01.018Z,100808.47
2023-02-08T21:56:27.592Z,100811.25
2023-02-08T21:58:54.180Z,100804.63
2023-02-08T22:01:20.745Z,100809.72
2023-02-08T22:03:48.661Z,100807.59
2023-02-08T22:06:15.380Z,100817.59
2023-02-08T22:08:42.129Z,100810.06
2023-02-08T22:11:09.042Z,100810.25
2023-02-08T22:13:35.578Z,100807.69
2023-02-08T22:16:07.649Z,100813.06
2023-02-08T22:18:34.460Z,100807.56
2023-02-08T22:21:03.639Z,100795.72
2023-02-08T22:23:30.382Z,100795.94
2023-02-08T22:25:56.889Z,100802.72
2023-02-08T22:28:23.554Z,100804.94
2023-02-08T22:30:50.666Z,100813.47
2023-02-08T22:33:17.452Z,100812.13
2023-02-08T22:35:44.175Z,100817.75
2023-02-08T22:38:12.200Z,100824.16
2023-02-08T22:40:41.001Z,100827.41
2023-02-08T22:43:07.527Z,100826.94
2023-02-08T22:45:34.266Z,100816.88
2023-02-08T22:48:00.789Z,100818.44
2023-02-08T22:50:27.510Z,100820.66
2023-02-08T22:52:54.053Z,100821.00
2023-02-08T22:55:22.118Z,100824.66
2023-02-08T22:57:48.681Z,100830.34
2023-02-08T23:00:16.350Z,100827.06
2023-02-08T23:02:43.205Z,100835.03
2023-02-08T23:05:09.835Z,100829.97
2023-02-08T23:07:36.354Z,100821.75
2023-02-08T23:10:03.393Z,100818.16
2023-02-08T23:12:31.501Z,100821.56
2023-02-08T23:14:58.116Z,100821.91
2023-02-08T23:17:24.849Z,100819.19
2023-02-08T23:19:51.561Z,100817.28
2023-02-08T23:22:18.263Z,100815.31
2023-02-08T23:24:44.990Z,100804.28
2023-02-08T23:27:11.517Z,100818.38
2023-02-08T23:29:39.561Z,100819.53
2023-02-08T23:32:06.205Z,100813.19
2023-02-08T23:34:34.219Z,100813.72
2023-02-08T23:37:00.724Z,100808.97
2023-02-08T23:39:27.482Z,100804.34
2023-02-08T23:41:55.460Z,100809.84
2023-02-08T23:44:22.126Z,100811.66
2023-02-08T23:46:50.125Z,100809.56
2023-02-08T23:49:16.882Z,100800.53
2023-02-08T23:51:43.579Z,100799.22
2023-02-08T23:54:10.175Z,100799.69
2023-02-08T23:56:36.754Z,100796.56
2023-02-08T23:59:03.554Z,100796.56
